Pagrindinis puslapis
METAR-TAF:

METAR-TAF

Oro uostai :

Lamerd, Iranas

platuma: 27-22-22N, ilguma: 53-11-20E, Aukštis: 408 m

Dabartinis oras

Ataskaita buvo paskelbta 9 valandos ir 36 minutes, ne 15:00 UTC
Vėjas 4 kt iš Vakarų
Temperatūra 33°C
Drėgmė 21%
Slėgis 1005 hPa
Matomumas 10 km arba daugiau
nėra debesų žemiau 1500 m ir nėra kamuolinių lietaus debesų

METAR: OISR 231500Z 28004KT CAVOK 33/08 Q1004 A2968 NOSIG

Laikas: 04:06 (00:36 UTC)


TAF: trūkstamas

Orai ataskaitas ir orų prognozės (METAR, TAF).

turimą stotys yra geltonos ir raudonos taškus žemėlapyje.

Perkelti pele per norėdami pamatyti stoties vardą.

Tada spustelėkite, norėdami matyti oro stebėjimo ir prognozės.

Norėdami pakeisti žemėlapį: spustelėkite ant žalios mygtukų su juodo kryžiaus žemyn,; žalią mygtuką su brūkšneliu, jei norite nutolinti; arba žalių rodyklių gretimoms žemėlapius.


METAR-TAF: